Moyenne Distance (Open) St Rémy - Forêt de Mirambelle (19) - D1

Date : 13/07/2011

Place Nom Licence Catégorie Club Temps CN à J-60 Points Différence Nouveau CN
1 GUSTAFSSON Jannina 17863 D18 0615AZ 0:22:01 4880 7740 +2860 5620
2 LUTHRINGER Coline 10091 D16 8809LO 0:29:35 3560 5760 +2200 4079
3 ANTOINE Alain 1270 H60 2605RA 0:31:32 4652 5404 +752 4894
4 GUILMAIN Melanie 20572 D16 6208NO 0:31:37 3939 5390 +1451 4128
5 ALLANCON Michel 1005 H60 2906BR 0:32:04 4617 5314 +697 4742
6 BASTIN Hubert 10070 H60 2508FC 0:34:14 4988 4978 -10 5243
7 QUEYROI Henri 655 H65 3308AQ 0:36:01 4207 4732 +525 4205
8 ABISSE Jacques 703 H65 2508FC 0:36:03 3854 4727 +873 3944
9 AMET Marion 14575 D16 8809LO 0:36:12 4285 4708 +423 4473
10 VUILLET Christian 2712 H60 2105BO 0:36:29 4705 4671 -34 4705
11 JOUZEAU Georges 9472 H60 7404RA 0:37:18 4350 4569 +219 4616
12 MAGDINIER Gilles 1635 H60 1307PR 0:37:47 3880 4510 +630 4416
13 BAUDOIN Jean-Paul 16352 H60 0615AZ 0:38:44 4281 4400 +119 4348
14 FALGA Beatrice 12403 D16 6911RA 0:39:29 2219 4316 +2097 3366
15 MENUT J-Claude 1656 H60 8105MP 0:39:48 5308 4282 -1026 5467
16 VOGT Claude 2558 H65 6709AL 0:39:55 4298 4269 -29 4504
17 GANDON J-Claude 249 H70 6906RA 0:41:05 3827 4148 +321 4159
18 CHARDOT Marion 22315 D16 7807IF 0:41:35 3526 4098 +572 3808
19 ROBERT Christian 1086 H65 7004FC 0:42:06 4895 4048 -847 5072
20 LARMINACH Andre 646 H65 3308AQ 0:42:08 4208 4045 -163 4161
21 LOUAT Aime 12192 H60 8903BO 0:43:03 4591 3959 -632 4782
22 BASSET Fiona 23384 D16 6911RA 0:44:22 2419 3841 +1422 3328
23 FONTAINE Helise 22962 D18 5907NO 0:44:37 3874 3820 -54 4216
24 CALANDOT J-Pierre 2926 H60 1403NM 0:44:57 5124 3791 -1333 5212
25 SOL Michel 933 H60 7707IF 0:45:15 4341 3766 -575 4838
26 VERDIN Alix 15276 D16 7109BO 0:46:46 3679 3644 -35 3771
27 DEFIX Anne-Claire 21435 D18 4203RA 0:47:16 3751 3605 -146 4329
28 BAUDRY J-Claude 1693 H65 1705PC 0:48:38 3832 3504 -328 3843
29 GUIGUET Michel 455 H65 3801RA 0:49:02 3876 3475 -401 3994
30 NATALI Pierre 1107 H60 8105MP 0:50:00 3946 3408 -538 4036
31 LEPOUPON Andre 1605 H60 1307PR 0:50:17 4073 3389 -684 4385
32 GANZITTI Alexandre 3108 H65 9006FC 0:51:15 5262 3325 -1937 5262
33 MAIRE Candice 20170 D16 8807LO 0:52:04 3021 3273 +252 3154
34 KENANE Abdelkader 1448 H70 5501LO 0:52:10 4391 3267 -1124 4391
35 BLAUDEZ Alain 9368 H65 8807LO 0:52:58 3217 0
36 STUCKELBERGER Mathilde 15961 D18 1307PR 0:53:02 0 3213 2030
37 BEN YOUNES Rym 24001 D16 2517FC 0:55:36 3065 2416
38 FALCOZ Estelle 20410 D16 7305RA 0:55:38 3272 3063 -209 3272
39 RIVOLLIER Isaline 22451 D16 4201RA 0:57:57 3154 2941 -213 3434
40 LEFOUEST Joseph 1000 H70 2904BR 0:58:09 3374 2931 -443 3276
41 EUZEN J-Paul 16403 H70 6911RA 0:58:45 4028 2901 -1127 4042
42 KIEFFER J-Paul 2679 H60 2101BO 0:58:58 3281 2890 -391 3574
43 BULLIER Alisson 23427 D16 0207PI 0:59:20 2613 2872 +259 2752
44 TESSIER Daniel 2006 H60 7709IF 0:59:38 3991 2858 -1133 3921
45 RIFFARD J-Claude 2445 H70 5702LO 1:00:04 3085 2837 -248 3225
46 MULLER Raymond 352 H70 9006FC 1:00:37 3097 2811 -286 3104
47 DIEUDONNE Roland 1381 H65 7808IF 1:02:43 3343 2717 -626 3451
48 DUQUENNE Audrey 23885 D16 5907NO 1:03:35 3176 2680 -496 3508
49 GERBEAUX Jean-paul 23596 H60 6205NO 1:05:49 2635 2589 -46 2897
50 DRAULT J-Raymond 4234 H65 8702LI 1:06:46 2593 2552 -41 2640
51 SZNAIDER Patrick 3556 H65 0615AZ 1:07:15 3611 2534 -1077 3628
52 BERCHE Léa 24420 D16 5907NO 1:07:35 2159 2522 +363 2527
53 BLUM Sylvain 13672 H55 5116CA 1:09:07 2688 2466 -222 2830
54 LEGUEN Joseph 8138 H65 2208BR 1:11:26 3428 2386 -1042 3041
55 DONNARD J-Pierre 561 H60 4504CE 1:15:01 4114 2272 -1842 4081
56 PROST Daniel 2181 H70 9307IF 1:20:08 2789 2127 -662 2789
57 GROSJEAN Pierre 12354 H70 6913RA 1:24:11 2703 2024 -679 2893
58 BROSSAUD Gabriel 2660 H70 2101BO 1:39:29 0 1713 759
59 GEOFFROY Gerard 6442 H65 3408LR 1:43:59 3924 1639 -2285 4056
60 BONNAVEIRA David 24751 H40 2606RA 1:45:47 1611 0
BERBETT Gabriel 326 H65 6803AL abandon 2554 0 2600
DECHAVANNE J-Francois 3461 H60 6911RA pm 5507 0 5799
PONCET Jean-Pierre 16756 H60 3913FC pm 5128 0 5527
PELUSO Severine 9506 D16 8405PR pm 2870 0 2896
PERISSAT Fanette 23192 D18 7808IF pm 1069 0 1193